createdAt,value
2022-12-23T00:00:02.369Z,15.54
2022-12-23T00:15:02.040Z,15.73
2022-12-23T00:30:01.713Z,15.87
2022-12-23T00:45:02.381Z,16.22
2022-12-23T01:00:02.047Z,16.1
2022-12-23T01:15:01.696Z,15.97
2022-12-23T01:30:02.357Z,16.1
2022-12-23T01:45:02.005Z,16.11
2022-12-23T02:00:01.629Z,15.93
2022-12-23T02:15:02.284Z,16.23
2022-12-23T02:30:01.951Z,16.06
2022-12-23T02:45:01.659Z,16.05
2022-12-23T03:00:02.319Z,16.07
2022-12-23T03:15:02.047Z,16.04
2022-12-23T03:30:01.751Z,16.03
2022-12-23T04:00:02.035Z,16.37
2022-12-23T04:15:03.129Z,15.72
2022-12-23T04:30:01.535Z,15.48
2022-12-23T04:45:02.209Z,15.34
2022-12-23T05:00:01.930Z,15.48
2022-12-23T05:15:01.599Z,15.57
2022-12-23T05:30:02.338Z,15.82
2022-12-23T05:45:02.105Z,16.05
2022-12-23T06:00:01.748Z,16.31
2022-12-23T06:15:01.428Z,16.54
2022-12-23T06:30:02.112Z,16.7
2022-12-23T06:45:01.824Z,16.54
2022-12-23T07:00:01.810Z,16.7
2022-12-23T07:15:01.545Z,17.13
2022-12-23T07:30:02.226Z,16.95
2022-12-23T07:45:01.865Z,16.69
2022-12-23T08:00:01.487Z,16.82
2022-12-23T08:15:02.107Z,16.82
2022-12-23T08:30:01.739Z,16.38
2022-12-23T08:45:01.408Z,16.47
2022-12-23T09:00:02.040Z,16.45
2022-12-23T09:15:01.677Z,16.95
2022-12-23T09:30:01.321Z,17.27
2022-12-23T09:45:01.962Z,17.53
2022-12-23T10:00:01.606Z,17.91
2022-12-23T10:15:01.242Z,18.07
2022-12-23T10:30:19.948Z,18.19
2022-12-23T10:45:01.691Z,18.51
2022-12-23T11:00:01.336Z,18.88
2022-12-23T11:15:01.988Z,18.89
2022-12-23T11:30:01.630Z,19.1
2022-12-23T11:45:01.296Z,18.91
2022-12-23T12:00:01.954Z,18.62
2022-12-23T12:15:01.605Z,18.42
2022-12-23T12:30:07.683Z,17.95
2022-12-23T12:45:01.254Z,18.06
2022-12-23T13:00:06.398Z,17.82
2022-12-23T13:15:01.528Z,17.39
2022-12-23T13:30:01.217Z,17.17
2022-12-23T13:45:01.848Z,16.9
2022-12-23T14:00:05.829Z,16.2
2022-12-23T14:15:01.044Z,15.96
2022-12-23T14:30:08.952Z,15.84
2022-12-23T14:45:01.739Z,15.65
2022-12-23T15:00:01.411Z,15.52
2022-12-23T15:15:01.233Z,15.53
2022-12-23T15:30:02.165Z,15.25
2022-12-23T15:45:02.073Z,15.24
2022-12-23T16:00:01.861Z,15.47
2022-12-23T16:15:02.513Z,15.46
2022-12-23T16:30:02.157Z,15.52
2022-12-23T16:45:01.792Z,15.45
2022-12-23T17:00:02.460Z,15.51
2022-12-23T17:15:02.115Z,15.69
2022-12-23T17:30:01.803Z,15.87
2022-12-23T17:45:02.439Z,15.79
2022-12-23T18:00:02.084Z,15.78
2022-12-23T18:15:01.723Z,15.49
2022-12-23T18:30:02.383Z,15.68
2022-12-23T18:45:02.006Z,15.75
2022-12-23T19:00:01.651Z,15.97
2022-12-23T19:15:02.299Z,16.02
2022-12-23T19:30:01.987Z,16.17
2022-12-23T19:45:01.658Z,16.39
2022-12-23T20:00:02.284Z,16.07
2022-12-23T20:15:01.960Z,15.3
2022-12-23T20:30:01.672Z,15.54
2022-12-23T20:45:02.325Z,15.91
2022-12-23T21:00:01.968Z,16.1
2022-12-23T21:15:01.635Z,15.53
2022-12-23T21:30:02.395Z,15.77
2022-12-23T21:45:02.053Z,15.93
2022-12-23T22:00:01.707Z,16.35
2022-12-23T22:15:06.412Z,16.4
2022-12-23T22:30:01.919Z,16.31
2022-12-23T22:45:01.685Z,16.45
2022-12-23T23:00:06.064Z,15.06
2022-12-23T23:15:02.114Z,15.23
2022-12-23T23:30:01.750Z,14.91
2022-12-23T23:45:01.385Z,15.1
